• Join FlightAware (Why Join?)
  • Login
  • US Flag 
09:56AM EDT


 

Airport Tracker/Info


-or-


 

Live Flight TrackerFlight Track Log ✈ FLG4262 ✈ 22-Sep-2013 ✈ KDTW - KBGM

Flight Track Log - Related Links

Times and Time Zones

All times are in EDT time to prevent confusion due to time zone crossing. See the FLG4262 flight status page for this flight to view local times or setup timezone preferences in your user account.

Time Position Orientation Groundspeed Altitude Reporting Facility
EDT Latitude Longitude Course Direction KTS MPH feet Rate Location/Type
04:09PM 42.2281 -83.3533 83° East 152 175 1,400  Level Cleveland Center
04:10PM 42.2664 -83.3192 33° Northeast 204 235 2,900 1,680 Climbing Cleveland Center
04:11PM 42.2836 -83.3028 35° Northeast 212 244 4,000 2,820 Climbing Cleveland Center
04:11PM 42.3158 -83.2753 32° Northeast 213 245 5,800 2,460 Climbing Cleveland Center
04:12PM 42.3247 -83.2394 71° East 233 268 6,600 2,040 Climbing Cleveland Center
04:12PM 42.3147 -83.1819 103° East 283 326 7,900 2,400 Climbing Cleveland Center
04:13PM 42.2953 -83.1256 115° Southeast 279 321 9,100 1,920 Climbing Cleveland Center
04:13PM 42.2786 -83.0783 115° Southeast 312 359 9,900 840 Climbing Cleveland Center
04:14PM 42.2346 -82.5647 94° East  Level Estimated
04:14PM 42.2706 -83.0089 99° East 331 381 10,000  Level Cleveland Center
04:15PM 42.2481 -82.4079 83° East  Level FlightAware Approximate
04:15PM 42.2939 -82.8886 75° East 335 386 11,900  Level Cleveland Center
04:16PM 42.3161 -82.7603 77° East 346 398 13,700 1,620 Climbing Cleveland Center
04:17PM 42.3369 -82.6297 78° East 354 407 15,300 1,620 Climbing Cleveland Center
04:18PM 42.3642 -82.4669 77° East 368 423 17,100 1,440 Climbing Cleveland Center
04:19PM 42.3617 -82.3214 91° East 392 451 18,300 1,080 Climbing Cleveland Center
04:20PM 42.3558 -82.1722 93° East 398 458 19,400 1,140 Climbing Cleveland Center
04:21PM 42.3481 -82.0036 94° East 406 467 20,700 1,200 Climbing Cleveland Center
04:22PM 42.3417 -81.8481 93° East 410 472 21,900 1,020 Climbing Cleveland Center
04:23PM 42.3347 -81.6919 93° East 412 474 22,900 900 Climbing Cleveland Center
04:24PM 42.3269 -81.5317 94° East 420 483 23,800 840 Climbing Cleveland Center
04:25PM 42.3186 -81.3700 94° East 425 489 24,700 540 Climbing Cleveland Center
04:26PM 42.3111 -81.2053 93° East 433 498 25,000 120 Climbing Cleveland Center
04:27PM 42.3028 -81.0353 94° East 445 512 25,000  Level Cleveland Center
04:28PM 42.2939 -80.8678 94° East 444 511 25,000  Level Cleveland Center
04:29PM 42.2833 -80.6728 94° East 442 509 25,000  Level Cleveland Center
04:31PM 42.2744 -80.5094 94° East 436 502 25,000  Level Cleveland Center
04:32PM 42.2661 -80.3419 94° East 440 506 25,000  Level Cleveland Center
04:33PM 42.2556 -80.1747 95° East 443 510 25,000  Level Cleveland Center
04:34PM 42.2447 -80.0072 95° East 443 510 25,000  Level Cleveland Center
04:35PM 42.2350 -79.8217 94° East 442 509 25,000  Level Cleveland Center
04:36PM 42.2233 -79.6578 95° East 441 507 25,000  Level Cleveland Center
04:37PM 42.2128 -79.4922 95° East 445 512 25,000  Level Cleveland Center
04:38PM 42.2022 -79.3278 95° East 442 509 25,000  Level Cleveland Center
04:39PM 42.1911 -79.1653 95° East 438 504 25,000  Level Cleveland Center
04:40PM 42.1911 -78.9722 90° East 432 497 25,000 -360 Level Cleveland Center
04:41PM 42.1931 -78.8178 89° East 430 495 24,300 -1,020 Descending Cleveland Center
04:42PM 42.1958 -78.6583 89° East 430 495 23,000 -660 Descending Cleveland Center
04:43PM 42.1983 -78.5039 89° East 419 482 23,000  Level Cleveland Center
04:44PM 42.2014 -78.3242 89° East 405 466 23,000 -60 Level Cleveland Center
04:45PM 42.2039 -78.1756 89° East 402 463 22,900 -540 Descending Cleveland Center
04:46PM 42.2061 -78.0261 89° East 402 463 21,900 -1,020 Descending Cleveland Center
04:47PM 42.2075 -77.8808 89° East 394 453 20,900 -1,020 Descending Cleveland Center
04:48PM 42.2081 -77.7386 90° East 385 443 19,900 -1,080 Descending Cleveland Center
04:49PM 42.2094 -77.5714 89° East 378 435 18,700 -1,080 Descending Cleveland Center
04:50PM 42.2100 -77.4308 90° East 380 437 17,700 -840 Descending Cleveland Center
04:51PM 42.2108 -77.2906 89° East 378 435 17,000 -360 Descending Cleveland Center
04:52PM 42.2103 -77.1542 90° East 370 426 17,000 -300 Level Cleveland Center
04:53PM 42.2094 -77.0450 91° East 376 433 16,500 -1,560 Descending New York Center
04:54PM 42.2103 -76.9133 89° East 364 419 14,400 -2,100 Descending New York Center
04:55PM 42.2103 -76.7872 90° East 351 404 12,400 -1,920 Descending New York Center
04:56PM 42.1914 -76.6653 102° East 337 388 10,600 -1,560 Descending New York Center
04:57PM 42.1486 -76.5608 119° Southeast 317 365 9,300 -1,080 Descending New York Center
04:57PM 42.1339 -76.5222 117° Southeast 305 351 9,000 -420 Descending Cleveland Center
04:58PM 42.1114 -76.4708 121° Southeast 300 345 8,900 -1,080 Descending New York Center
04:59PM 42.0758 -76.3839 119° Southeast 280 322 7,400 -1,500 Descending New York Center
05:00PM 42.0425 -76.3000 118° Southeast 267 307 5,900 -1,200 Descending New York Center
05:01PM 42.0067 -76.2161 120° Southeast 262 302 5,100 -480 Descending New York Center
05:02PM 41.9769 -76.1383 117° Southeast 250 288 5,000 -60 Descending New York Center
05:03PM 41.9706 -76.0514 96° East 236 272 5,000  Level New York Center
05:04PM 41.9719 -75.9706 89° East 230 265 5,000 -480 Level New York Center
05:05PM 41.9736 -75.8842 88° East 235 270 4,100 -540 Descending New York Center
05:06PM 42.0286 -75.8633 16° North 160 184 4,000 -60 Descending New York Center
05:07PM 42.0783 -75.8700 354° North 160 184 4,000 -180 Level New York Center
05:08PM 42.1183 -75.9067 326° Northwest 160 184 3,700 -600 Descending New York Center
05:09PM 42.1564 -75.9403 327° Northwest 165 190 2,800 -900 Descending New York Center